createdAt,value
2023-01-19T00:01:30.862Z,6.07
2023-01-19T00:03:58.647Z,6.40
2023-01-19T00:06:26.610Z,6.43
2023-01-19T00:08:54.389Z,5.63
2023-01-19T00:11:22.077Z,6.17
2023-01-19T00:13:50.936Z,6.00
2023-01-19T00:16:23.126Z,6.40
2023-01-19T00:18:52.496Z,6.27
2023-01-19T00:21:21.732Z,6.03
2023-01-19T00:23:51.208Z,7.07
2023-01-19T00:26:22.087Z,5.70
2023-01-19T00:28:50.817Z,6.20
2023-01-19T00:31:21.574Z,5.77
2023-01-19T00:33:51.456Z,6.80
2023-01-19T00:36:19.627Z,6.53
2023-01-19T00:38:47.321Z,6.43
2023-01-19T00:41:15.100Z,6.37
2023-01-19T00:43:42.814Z,5.90
2023-01-19T00:46:10.725Z,5.60
2023-01-19T00:48:39.832Z,5.60
2023-01-19T00:51:07.545Z,6.67
2023-01-19T00:53:35.243Z,5.90
2023-01-19T00:56:02.877Z,6.30
2023-01-19T00:58:30.610Z,5.60
2023-01-19T01:01:03.573Z,5.37
2023-01-19T01:03:31.604Z,5.63
2023-01-19T01:06:00.661Z,6.23
2023-01-19T01:08:28.384Z,5.87
2023-01-19T01:10:56.316Z,6.03
2023-01-19T01:13:27.286Z,6.10
2023-01-19T01:15:56.724Z,5.87
2023-01-19T01:18:24.748Z,5.37
2023-01-19T01:20:54.504Z,6.20
2023-01-19T01:23:24.352Z,5.90
2023-01-19T01:25:52.087Z,5.93
2023-01-19T01:28:19.777Z,6.20
2023-01-19T01:30:47.533Z,6.33
2023-01-19T01:33:15.396Z,6.90
2023-01-19T01:36:03.195Z,6.67
2023-01-19T01:38:32.246Z,6.97
2023-01-19T01:41:00.135Z,6.07
2023-01-19T01:43:43.924Z,6.83
2023-01-19T01:46:15.384Z,6.83
2023-01-19T01:48:47.591Z,6.57
2023-01-19T01:51:27.661Z,7.03
2023-01-19T01:54:17.735Z,5.87
2023-01-19T01:56:48.327Z,6.90
2023-01-19T01:59:25.839Z,7.30
2023-01-19T02:02:12.944Z,6.57
2023-01-19T02:04:44.111Z,7.10
2023-01-19T02:07:33.627Z,6.70
2023-01-19T02:10:20.257Z,7.07
2023-01-19T02:13:06.098Z,6.93
2023-01-19T02:15:34.152Z,6.40
2023-01-19T02:18:02.020Z,6.37
2023-01-19T02:20:32.705Z,7.50
2023-01-19T02:23:06.497Z,7.03
2023-01-19T02:25:35.779Z,6.77
2023-01-19T02:28:05.079Z,7.63
2023-01-19T02:30:33.890Z,7.30
2023-01-19T02:33:02.095Z,7.47
2023-01-19T02:35:31.792Z,7.53
2023-01-19T02:38:00.323Z,7.73
2023-01-19T02:40:29.129Z,6.83
2023-01-19T02:43:00.911Z,7.10
2023-01-19T02:45:29.062Z,6.60
2023-01-19T02:47:57.123Z,6.13
2023-01-19T02:50:43.790Z,6.63
2023-01-19T02:53:37.671Z,6.10
2023-01-19T02:56:23.335Z,6.80
2023-01-19T02:58:59.455Z,6.83
2023-01-19T03:01:36.834Z,6.83
2023-01-19T03:04:12.616Z,7.47
2023-01-19T03:06:47.421Z,7.10
2023-01-19T03:09:23.150Z,6.80
2023-01-19T03:11:57.177Z,7.33
2023-01-19T03:14:30.519Z,7.83
2023-01-19T03:17:03.552Z,7.23
2023-01-19T03:19:37.340Z,7.40
2023-01-19T03:22:10.257Z,7.67
2023-01-19T03:24:41.854Z,7.53
2023-01-19T03:27:14.877Z,6.83
2023-01-19T03:29:51.895Z,7.07
2023-01-19T03:32:23.440Z,7.93
2023-01-19T03:34:53.849Z,7.77
2023-01-19T03:37:24.138Z,7.60
2023-01-19T03:39:51.945Z,7.07
2023-01-19T03:42:21.358Z,7.90
2023-01-19T03:44:51.307Z,8.13
2023-01-19T03:47:21.104Z,7.40
2023-01-19T03:49:50.729Z,7.20
2023-01-19T03:52:18.549Z,8.07
2023-01-19T03:54:46.309Z,8.50
2023-01-19T03:57:13.999Z,7.37
2023-01-19T03:59:41.807Z,8.00
2023-01-19T04:02:11.007Z,8.13
2023-01-19T04:04:38.735Z,8.30
2023-01-19T04:07:06.951Z,8.80
2023-01-19T04:09:34.624Z,9.03
2023-01-19T04:12:03.674Z,9.70
2023-01-19T04:14:31.478Z,10.10
2023-01-19T04:16:59.174Z,9.23
2023-01-19T04:19:28.222Z,9.47
2023-01-19T04:21:56.900Z,9.93
2023-01-19T04:24:24.681Z,9.53
2023-01-19T04:26:52.833Z,9.57
2023-01-19T04:29:20.538Z,9.33
2023-01-19T04:31:48.231Z,9.37
2023-01-19T04:34:15.991Z,9.23
2023-01-19T04:36:45.384Z,9.70
2023-01-19T04:39:13.055Z,8.87
2023-01-19T04:41:41.896Z,9.33
2023-01-19T04:44:09.918Z,8.90
2023-01-19T04:46:37.562Z,8.23
2023-01-19T04:49:05.279Z,9.67
2023-01-19T04:51:34.362Z,9.40
2023-01-19T04:54:04.018Z,8.10
2023-01-19T04:56:31.742Z,9.87
2023-01-19T04:58:59.482Z,9.23
2023-01-19T05:01:27.592Z,8.97
2023-01-19T05:03:55.358Z,10.13
2023-01-19T05:06:23.089Z,9.40
2023-01-19T05:08:50.810Z,9.47
2023-01-19T05:11:19.943Z,9.60
2023-01-19T05:13:48.188Z,10.10
2023-01-19T05:16:16.534Z,8.73
2023-01-19T05:18:44.371Z,10.13
2023-01-19T05:21:12.082Z,10.23
2023-01-19T05:23:39.786Z,9.53
2023-01-19T05:26:09.491Z,10.00
2023-01-19T05:28:38.924Z,8.80
2023-01-19T05:31:06.836Z,9.80
2023-01-19T05:33:34.719Z,9.80
2023-01-19T05:36:02.531Z,9.57
2023-01-19T05:38:35.296Z,9.47
2023-01-19T05:41:03.696Z,10.00
2023-01-19T05:43:31.419Z,9.73
2023-01-19T05:46:00.595Z,9.80
2023-01-19T05:48:28.230Z,9.63
2023-01-19T05:50:58.918Z,9.60
2023-01-19T05:53:27.143Z,9.53
2023-01-19T05:55:55.188Z,9.60
2023-01-19T05:58:22.830Z,10.27
2023-01-19T06:00:50.585Z,9.70
2023-01-19T06:03:19.686Z,10.40
2023-01-19T06:05:47.444Z,8.77
2023-01-19T06:08:15.272Z,9.00
2023-01-19T06:10:43.092Z,9.60
2023-01-19T06:13:11.226Z,10.13
2023-01-19T06:15:38.933Z,9.90
2023-01-19T06:18:06.847Z,9.80
2023-01-19T06:20:36.718Z,9.03
2023-01-19T06:23:04.787Z,9.63
2023-01-19T06:25:32.447Z,8.83
2023-01-19T06:28:00.224Z,9.13
2023-01-19T06:30:29.073Z,8.80
2023-01-19T06:32:56.870Z,9.33
2023-01-19T06:35:24.657Z,9.67
2023-01-19T06:37:53.822Z,8.50
2023-01-19T06:40:21.539Z,10.03
2023-01-19T06:42:49.793Z,8.17
2023-01-19T06:45:17.532Z,8.83
2023-01-19T06:47:47.954Z,8.93
2023-01-19T06:50:16.061Z,9.60
2023-01-19T06:52:43.787Z,9.13
2023-01-19T06:55:14.542Z,8.93
2023-01-19T06:57:42.186Z,8.87
2023-01-19T07:00:11.768Z,9.53
2023-01-19T07:02:43.417Z,9.23
2023-01-19T07:05:14.290Z,9.03
2023-01-19T07:07:43.204Z,9.30
2023-01-19T07:10:13.055Z,9.80
2023-01-19T07:12:40.894Z,9.50
2023-01-19T07:15:11.692Z,9.97
2023-01-19T07:17:39.425Z,9.83
2023-01-19T07:20:08.783Z,9.67
2023-01-19T07:22:36.524Z,9.47
2023-01-19T07:25:04.744Z,9.17
2023-01-19T07:27:37.196Z,8.57
2023-01-19T07:30:05.565Z,8.90
2023-01-19T07:32:33.347Z,9.33
2023-01-19T07:35:00.996Z,9.00
2023-01-19T07:37:28.850Z,9.03
2023-01-19T07:39:56.561Z,10.03
2023-01-19T07:42:24.355Z,10.10
2023-01-19T07:44:53.567Z,9.70
2023-01-19T07:47:21.376Z,9.53
2023-01-19T07:49:49.120Z,9.33
2023-01-19T07:52:16.800Z,9.00
2023-01-19T07:54:44.531Z,9.47
2023-01-19T07:57:12.255Z,9.70
2023-01-19T07:59:39.992Z,10.27
2023-01-19T08:02:10.490Z,10.80
2023-01-19T08:04:38.256Z,10.23
2023-01-19T08:07:06.037Z,9.83
2023-01-19T08:09:33.707Z,9.50
2023-01-19T08:12:01.619Z,10.27
2023-01-19T08:14:29.286Z,11.33
2023-01-19T08:17:00.362Z,10.70
2023-01-19T08:19:29.464Z,10.27
2023-01-19T08:21:58.842Z,10.57
2023-01-19T08:24:28.650Z,10.70
2023-01-19T08:27:00.309Z,11.00
2023-01-19T08:29:30.695Z,9.73
2023-01-19T08:32:00.077Z,10.60
2023-01-19T08:34:31.499Z,9.77
2023-01-19T08:36:59.967Z,9.10
2023-01-19T08:39:27.841Z,9.87
2023-01-19T08:41:55.894Z,10.40
2023-01-19T08:44:23.776Z,9.87
2023-01-19T08:46:51.460Z,9.60
2023-01-19T08:49:19.232Z,9.77
2023-01-19T08:51:49.115Z,10.70
2023-01-19T08:54:18.537Z,10.67
2023-01-19T08:56:46.494Z,10.83
2023-01-19T08:59:14.371Z,11.13
2023-01-19T09:01:42.377Z,10.93
2023-01-19T09:04:10.213Z,12.43
2023-01-19T09:06:38.132Z,12.70
2023-01-19T09:09:07.226Z,10.63
2023-01-19T09:11:36.325Z,9.83
2023-01-19T09:14:05.663Z,10.27
2023-01-19T09:16:33.343Z,10.17
2023-01-19T09:19:01.284Z,11.00
2023-01-19T09:21:29.390Z,10.87
2023-01-19T09:23:57.772Z,10.83
2023-01-19T09:26:27.111Z,10.60
2023-01-19T09:28:54.846Z,10.87
2023-01-19T09:31:22.707Z,10.77
2023-01-19T09:33:50.513Z,10.17
2023-01-19T09:36:18.299Z,10.87
2023-01-19T09:38:46.116Z,11.20
2023-01-19T09:41:20.160Z,9.97
2023-01-19T09:43:54.104Z,10.57
2023-01-19T09:46:25.728Z,10.10
2023-01-19T09:48:56.519Z,10.60
2023-01-19T09:51:26.628Z,10.87
2023-01-19T09:54:04.147Z,11.07
2023-01-19T09:56:32.843Z,9.87
2023-01-19T09:59:02.526Z,10.43
2023-01-19T10:01:47.585Z,10.70
2023-01-19T10:04:30.589Z,10.77
2023-01-19T10:07:07.719Z,10.37
2023-01-19T10:09:46.541Z,10.57
2023-01-19T10:12:23.365Z,10.40
2023-01-19T10:15:01.723Z,9.13
2023-01-19T10:17:40.472Z,9.40
2023-01-19T10:20:16.036Z,9.80
2023-01-19T10:22:51.578Z,9.37
2023-01-19T10:25:23.680Z,9.27
2023-01-19T10:27:51.467Z,9.20
2023-01-19T10:30:24.442Z,8.73
2023-01-19T10:32:52.886Z,8.87
2023-01-19T10:35:24.595Z,8.60
2023-01-19T10:37:54.059Z,7.33
2023-01-19T10:40:30.901Z,7.37
2023-01-19T10:42:59.669Z,7.10
2023-01-19T10:45:31.620Z,6.00
2023-01-19T10:48:06.503Z,6.17
2023-01-19T10:50:37.163Z,6.37
2023-01-19T10:53:06.756Z,5.80
2023-01-19T10:55:37.966Z,5.97
2023-01-19T10:58:07.583Z,6.03
2023-01-19T11:00:39.322Z,6.30
2023-01-19T11:03:24.192Z,5.90
2023-01-19T11:05:52.518Z,5.67
2023-01-19T11:08:24.634Z,6.40
2023-01-19T11:10:58.936Z,5.37
2023-01-19T11:13:26.657Z,5.50
2023-01-19T11:15:58.501Z,5.57
2023-01-19T11:18:34.866Z,5.27
2023-01-19T11:21:06.418Z,5.50
2023-01-19T11:23:42.170Z,5.87
2023-01-19T11:26:15.795Z,5.53
2023-01-19T11:28:48.499Z,4.87
2023-01-19T11:31:32.204Z,4.93
2023-01-19T11:34:01.267Z,5.40
2023-01-19T11:36:30.886Z,5.03
2023-01-19T11:39:00.667Z,5.47
2023-01-19T11:41:30.559Z,5.00
2023-01-19T11:44:01.263Z,4.47
2023-01-19T11:46:36.216Z,4.30
2023-01-19T11:49:09.101Z,4.77
2023-01-19T11:51:45.013Z,4.63
2023-01-19T11:54:20.915Z,5.03
2023-01-19T11:56:49.556Z,4.23
2023-01-19T11:59:17.373Z,4.03
2023-01-19T12:01:50.561Z,4.40
2023-01-19T12:04:22.758Z,4.50
2023-01-19T12:06:53.880Z,4.00
2023-01-19T12:09:24.646Z,4.10
2023-01-19T12:12:01.675Z,3.93
2023-01-19T12:14:36.233Z,4.30
2023-01-19T12:17:08.579Z,4.13
2023-01-19T12:19:44.171Z,4.00
2023-01-19T12:22:16.545Z,3.83
2023-01-19T12:24:50.035Z,3.93
2023-01-19T12:27:28.139Z,4.70
2023-01-19T12:29:56.358Z,3.67
2023-01-19T12:32:35.041Z,3.60
2023-01-19T12:35:02.888Z,3.83
2023-01-19T12:37:38.114Z,4.20
2023-01-19T12:40:21.223Z,3.97
2023-01-19T12:42:56.881Z,3.47
2023-01-19T12:45:26.882Z,4.37
2023-01-19T12:47:57.576Z,4.20
2023-01-19T12:50:29.640Z,3.80
2023-01-19T12:52:59.754Z,4.07
2023-01-19T12:55:31.090Z,4.30
2023-01-19T12:58:02.672Z,4.50
2023-01-19T13:00:37.416Z,3.57
2023-01-19T13:03:42.067Z,3.30
2023-01-19T13:06:09.816Z,3.60
2023-01-19T13:09:01.343Z,3.70
2023-01-19T13:11:34.094Z,3.23
2023-01-19T13:14:34.516Z,3.90
2023-01-19T13:17:21.684Z,3.40
2023-01-19T13:19:56.049Z,3.57
2023-01-19T13:22:52.806Z,3.47
2023-01-19T13:25:30.933Z,3.30
2023-01-19T13:27:59.194Z,3.43
2023-01-19T13:30:29.797Z,4.50
2023-01-19T13:33:02.604Z,3.87
2023-01-19T13:35:31.894Z,4.33
2023-01-19T13:38:00.843Z,3.70
2023-01-19T13:40:38.229Z,4.23
2023-01-19T13:43:14.979Z,4.03
2023-01-19T13:45:49.867Z,3.90
2023-01-19T13:48:22.415Z,4.47
2023-01-19T13:51:03.975Z,4.77
2023-01-19T13:53:32.535Z,4.20
2023-01-19T13:56:21.844Z,4.30
2023-01-19T13:59:09.790Z,3.97
2023-01-19T14:01:39.713Z,3.93
2023-01-19T14:04:08.043Z,4.13
2023-01-19T14:06:42.937Z,4.10
2023-01-19T14:09:17.870Z,3.53
2023-01-19T14:11:47.527Z,3.27
2023-01-19T14:14:26.644Z,2.73
2023-01-19T14:16:55.805Z,3.70
2023-01-19T14:19:23.670Z,3.30
2023-01-19T14:22:04.495Z,3.50
2023-01-19T14:24:33.293Z,3.53
2023-01-19T14:27:19.901Z,3.40
2023-01-19T14:29:50.566Z,3.67
2023-01-19T14:32:20.630Z,3.60
2023-01-19T14:34:50.237Z,3.77
2023-01-19T14:37:25.290Z,4.27
2023-01-19T14:39:58.775Z,4.03
2023-01-19T14:42:29.870Z,4.97
2023-01-19T14:45:01.810Z,4.17
2023-01-19T14:47:36.741Z,3.47
2023-01-19T14:50:10.776Z,4.13
2023-01-19T14:52:43.223Z,3.53
2023-01-19T14:55:21.786Z,4.23
2023-01-19T14:57:49.853Z,4.17
2023-01-19T15:00:20.121Z,5.60
2023-01-19T15:02:48.340Z,3.93
2023-01-19T15:05:16.705Z,3.47
2023-01-19T15:07:47.722Z,3.93
2023-01-19T15:10:20.679Z,3.80
2023-01-19T15:12:48.894Z,4.20
2023-01-19T15:15:18.541Z,4.00
2023-01-19T15:17:46.758Z,3.60
2023-01-19T15:20:20.253Z,4.83
2023-01-19T15:22:49.975Z,4.10
2023-01-19T15:25:20.363Z,4.00
2023-01-19T15:27:49.437Z,4.23
2023-01-19T15:30:20.766Z,4.33
2023-01-19T15:32:48.677Z,4.50
2023-01-19T15:35:17.964Z,4.80
2023-01-19T15:37:46.190Z,5.37
2023-01-19T15:40:16.523Z,4.60
2023-01-19T15:42:44.282Z,4.23
2023-01-19T15:45:33.728Z,4.47
2023-01-19T15:48:03.850Z,4.90
2023-01-19T15:50:32.074Z,4.70
2023-01-19T15:53:00.478Z,5.30
2023-01-19T15:55:29.841Z,5.27
2023-01-19T15:58:01.475Z,5.33
2023-01-19T16:00:30.426Z,6.10
2023-01-19T16:03:12.783Z,5.47
2023-01-19T16:05:43.874Z,5.30
2023-01-19T16:08:12.508Z,4.80
2023-01-19T16:10:42.368Z,5.17
2023-01-19T16:13:11.559Z,6.20
2023-01-19T16:15:40.249Z,5.93
2023-01-19T16:18:08.051Z,6.30
2023-01-19T16:20:35.811Z,6.03
2023-01-19T16:23:14.426Z,6.20
2023-01-19T16:25:44.913Z,5.07
2023-01-19T16:28:12.989Z,5.20
2023-01-19T16:30:40.779Z,5.97
2023-01-19T16:33:11.556Z,5.40
2023-01-19T16:35:39.442Z,5.23
2023-01-19T16:38:07.096Z,6.27
2023-01-19T16:40:34.768Z,5.87
2023-01-19T16:43:03.999Z,6.07
2023-01-19T16:45:31.623Z,7.40
2023-01-19T16:47:59.361Z,6.80
2023-01-19T16:50:27.181Z,7.10
2023-01-19T16:52:57.426Z,6.10
2023-01-19T16:55:25.131Z,7.07
2023-01-19T16:57:52.932Z,6.83
2023-01-19T17:00:22.546Z,6.97
2023-01-19T17:02:50.343Z,6.17
2023-01-19T17:05:18.322Z,6.13
2023-01-19T17:07:46.126Z,6.20
2023-01-19T17:10:14.061Z,6.93
2023-01-19T17:12:41.852Z,6.70
2023-01-19T17:15:10.521Z,6.53
2023-01-19T17:17:39.575Z,6.77
2023-01-19T17:20:08.461Z,6.23
2023-01-19T17:22:36.234Z,8.23
2023-01-19T17:25:04.268Z,7.83
2023-01-19T17:27:32.184Z,9.23
2023-01-19T17:29:59.833Z,8.10
2023-01-19T17:32:27.525Z,8.20
2023-01-19T17:34:56.704Z,6.30
2023-01-19T17:37:24.404Z,7.63
2023-01-19T17:39:52.184Z,7.60
2023-01-19T17:42:19.942Z,7.73
2023-01-19T17:44:47.709Z,7.33
2023-01-19T17:47:15.447Z,7.43
2023-01-19T17:49:44.927Z,7.03
2023-01-19T17:52:14.686Z,6.27
2023-01-19T17:54:43.723Z,6.63
2023-01-19T17:57:11.472Z,6.60
2023-01-19T17:59:40.982Z,7.33
2023-01-19T18:02:10.478Z,7.20
2023-01-19T18:04:39.118Z,6.23
2023-01-19T18:07:07.195Z,7.43
2023-01-19T18:09:36.391Z,6.77
2023-01-19T18:12:04.190Z,6.20
2023-01-19T18:14:31.985Z,6.87
2023-01-19T18:16:59.760Z,8.07
2023-01-19T18:19:27.939Z,7.13
2023-01-19T18:21:56.637Z,6.77
2023-01-19T18:24:24.394Z,7.00
2023-01-19T18:26:55.671Z,7.00
2023-01-19T18:29:23.646Z,6.63
2023-01-19T18:31:51.406Z,6.37
2023-01-19T18:34:19.164Z,6.73
2023-01-19T18:36:46.904Z,7.07
2023-01-19T18:39:14.595Z,7.03
2023-01-19T18:41:42.943Z,9.47
2023-01-19T18:44:12.881Z,11.37
2023-01-19T18:46:40.675Z,11.57
2023-01-19T18:49:08.975Z,10.73
2023-01-19T18:51:36.925Z,10.17
2023-01-19T18:54:04.775Z,10.37
2023-01-19T18:56:32.502Z,10.20
2023-01-19T18:59:00.314Z,9.80
2023-01-19T19:01:32.962Z,12.60
2023-01-19T19:04:00.899Z,12.10
2023-01-19T19:06:29.162Z,11.17
2023-01-19T19:08:59.212Z,10.73
2023-01-19T19:11:28.457Z,9.23
2023-01-19T19:13:58.453Z,8.30
2023-01-19T19:16:26.338Z,8.80
2023-01-19T19:18:55.841Z,8.53
2023-01-19T19:21:25.316Z,7.53
2023-01-19T19:23:54.816Z,8.10
2023-01-19T19:26:23.060Z,8.00
2023-01-19T19:28:50.958Z,9.53
2023-01-19T19:31:21.138Z,9.43
2023-01-19T19:33:50.785Z,9.90
2023-01-19T19:36:21.616Z,8.63
2023-01-19T19:38:49.541Z,9.10
2023-01-19T19:41:19.803Z,8.43
2023-01-19T19:43:47.847Z,8.67
2023-01-19T19:46:17.747Z,8.40
2023-01-19T19:48:45.699Z,8.03
2023-01-19T19:51:19.211Z,8.83
2023-01-19T19:53:51.401Z,9.10
2023-01-19T19:56:21.932Z,8.67
2023-01-19T19:58:50.459Z,8.33
2023-01-19T20:01:20.404Z,10.37
2023-01-19T20:03:48.421Z,9.27
2023-01-19T20:06:20.661Z,8.73
2023-01-19T20:08:50.302Z,8.20
2023-01-19T20:11:19.866Z,8.73
2023-01-19T20:13:47.726Z,9.40
2023-01-19T20:16:17.783Z,8.73
2023-01-19T20:18:55.247Z,9.20
2023-01-19T20:21:25.370Z,11.00
2023-01-19T20:23:55.606Z,10.97
2023-01-19T20:26:26.408Z,10.90
2023-01-19T20:28:54.505Z,10.23
2023-01-19T20:31:24.447Z,8.17
2023-01-19T20:33:52.954Z,7.87
2023-01-19T20:36:22.097Z,8.27
2023-01-19T20:38:49.835Z,8.10
2023-01-19T20:41:19.541Z,9.37
2023-01-19T20:43:47.372Z,9.77
2023-01-19T20:46:15.276Z,9.37
2023-01-19T20:48:43.079Z,9.23
2023-01-19T20:51:13.049Z,9.83
2023-01-19T20:53:42.243Z,10.53
2023-01-19T20:56:12.874Z,12.17
2023-01-19T20:58:42.450Z,11.10
2023-01-19T21:01:11.751Z,9.97
2023-01-19T21:03:39.865Z,11.67
2023-01-19T21:06:08.124Z,10.93
2023-01-19T21:08:36.422Z,11.47
2023-01-19T21:11:04.873Z,13.17
2023-01-19T21:13:32.955Z,11.60
2023-01-19T21:16:02.832Z,9.93
2023-01-19T21:18:30.524Z,9.87
2023-01-19T21:20:58.565Z,9.93
2023-01-19T21:23:27.332Z,10.83
2023-01-19T21:25:56.871Z,10.07
2023-01-19T21:28:24.937Z,10.30
2023-01-19T21:30:53.906Z,10.97
2023-01-19T21:33:23.811Z,11.67
2023-01-19T21:35:52.345Z,11.67
2023-01-19T21:38:20.800Z,10.93
2023-01-19T21:40:48.522Z,10.30
2023-01-19T21:43:20.017Z,11.17
2023-01-19T21:45:49.386Z,10.90
2023-01-19T21:48:17.387Z,10.37
2023-01-19T21:50:46.524Z,11.27
2023-01-19T21:53:15.637Z,10.23
2023-01-19T21:55:45.651Z,10.40
2023-01-19T21:58:13.365Z,9.83
2023-01-19T22:00:41.183Z,11.10
2023-01-19T22:03:09.132Z,11.03
2023-01-19T22:05:37.530Z,9.43
2023-01-19T22:08:06.985Z,9.57
2023-01-19T22:10:36.757Z,10.63
2023-01-19T22:13:06.603Z,9.60
2023-01-19T22:15:34.477Z,10.73
2023-01-19T22:18:02.240Z,10.90
2023-01-19T22:20:29.941Z,11.40
2023-01-19T22:22:57.822Z,10.43
2023-01-19T22:25:27.903Z,11.07
2023-01-19T22:27:55.981Z,11.20
2023-01-19T22:30:23.776Z,11.03
2023-01-19T22:32:53.184Z,10.50
2023-01-19T22:35:21.319Z,10.23
2023-01-19T22:37:49.121Z,11.27
2023-01-19T22:40:17.293Z,10.37
2023-01-19T22:42:48.110Z,10.47
2023-01-19T22:45:16.180Z,10.57
2023-01-19T22:47:44.004Z,11.30
2023-01-19T22:50:11.899Z,11.03
2023-01-19T22:52:39.527Z,10.57
2023-01-19T22:55:07.720Z,11.67
2023-01-19T22:57:36.575Z,10.73
2023-01-19T23:00:08.888Z,11.23
2023-01-19T23:02:36.773Z,10.30
2023-01-19T23:05:04.947Z,10.67
2023-01-19T23:07:32.689Z,11.27
2023-01-19T23:10:00.420Z,11.13
2023-01-19T23:12:28.146Z,10.13
2023-01-19T23:14:55.872Z,10.50
2023-01-19T23:17:25.020Z,10.50
2023-01-19T23:19:52.742Z,10.60
2023-01-19T23:22:20.421Z,10.63
2023-01-19T23:24:49.093Z,10.50
2023-01-19T23:27:17.866Z,10.73
2023-01-19T23:29:46.452Z,10.30
2023-01-19T23:32:14.524Z,10.00
2023-01-19T23:34:44.142Z,10.37
2023-01-19T23:37:11.803Z,10.60
2023-01-19T23:39:39.907Z,10.57
2023-01-19T23:42:08.844Z,9.70
2023-01-19T23:44:36.778Z,10.10
2023-01-19T23:47:04.557Z,10.17
2023-01-19T23:49:32.217Z,10.30
2023-01-19T23:52:01.482Z,10.33
2023-01-19T23:54:29.211Z,9.53
2023-01-19T23:56:57.494Z,10.43
2023-01-19T23:59:25.277Z,10.23
